sensor_id;sensor_type;location;lat;lon;timestamp;P1;durP1;ratioP1;P2;durP2;ratioP2
23394;SDS011;11870;53.084;18.206;2023-07-20T00:14:18;8.63;;;6.97;;
23394;SDS011;11870;53.084;18.206;2023-07-20T00:29:56;8.43;;;6.38;;
23394;SDS011;11870;53.084;18.206;2023-07-20T00:32:23;10.63;;;7.70;;
23394;SDS011;11870;53.084;18.206;2023-07-20T00:34:54;12.45;;;7.72;;
23394;SDS011;11870;53.084;18.206;2023-07-20T00:51:46;11.93;;;7.47;;
23394;SDS011;11870;53.084;18.206;2023-07-20T00:58:06;10.73;;;7.75;;
23394;SDS011;11870;53.084;18.206;2023-07-20T01:36:41;10.98;;;7.53;;
23394;SDS011;11870;53.084;18.206;2023-07-20T01:39:08;12.35;;;7.90;;
23394;SDS011;11870;53.084;18.206;2023-07-20T01:41:34;11.63;;;7.10;;
23394;SDS011;11870;53.084;18.206;2023-07-20T01:44:00;10.43;;;7.47;;
23394;SDS011;11870;53.084;18.206;2023-07-20T01:57:23;10.70;;;7.28;;
23394;SDS011;11870;53.084;18.206;2023-07-20T02:17:42;10.82;;;7.53;;
23394;SDS011;11870;53.084;18.206;2023-07-20T02:33:42;12.23;;;7.85;;
23394;SDS011;11870;53.084;18.206;2023-07-20T02:36:08;10.52;;;8.13;;
23394;SDS011;11870;53.084;18.206;2023-07-20T04:03:26;12.73;;;7.20;;
23394;SDS011;11870;53.084;18.206;2023-07-20T04:12:46;11.07;;;7.78;;
23394;SDS011;11870;53.084;18.206;2023-07-20T04:15:13;10.38;;;6.88;;
23394;SDS011;11870;53.084;18.206;2023-07-20T04:17:53;11.52;;;7.30;;
23394;SDS011;11870;53.084;18.206;2023-07-20T04:24:01;10.10;;;6.65;;
23394;SDS011;11870;53.084;18.206;2023-07-20T04:26:28;7.88;;;6.20;;
23394;SDS011;11870;53.084;18.206;2023-07-20T04:28:54;9.68;;;6.68;;
23394;SDS011;11870;53.084;18.206;2023-07-20T04:42:05;14.82;;;5.68;;
23394;SDS011;11870;53.084;18.206;2023-07-20T04:44:31;10.40;;;5.60;;
23394;SDS011;11870;53.084;18.206;2023-07-20T04:46:57;8.55;;;5.38;;
23394;SDS011;11870;53.084;18.206;2023-07-20T04:49:31;7.22;;;5.57;;
23394;SDS011;11870;53.084;18.206;2023-07-20T04:51:57;10.13;;;5.82;;
23394;SDS011;11870;53.084;18.206;2023-07-20T04:54:23;8.25;;;5.68;;
23394;SDS011;11870;53.084;18.206;2023-07-20T04:56:51;7.32;;;5.63;;
23394;SDS011;11870;53.084;18.206;2023-07-20T04:59:20;7.93;;;5.40;;
23394;SDS011;11870;53.084;18.206;2023-07-20T05:01:46;6.85;;;4.90;;
23394;SDS011;11870;53.084;18.206;2023-07-20T05:04:12;8.15;;;5.35;;
23394;SDS011;11870;53.084;18.206;2023-07-20T05:06:51;6.47;;;5.18;;
23394;SDS011;11870;53.084;18.206;2023-07-20T05:09:28;6.60;;;5.00;;
23394;SDS011;11870;53.084;18.206;2023-07-20T05:11:54;6.53;;;4.50;;
23394;SDS011;11870;53.084;18.206;2023-07-20T05:14:20;7.40;;;4.30;;
23394;SDS011;11870;53.084;18.206;2023-07-20T05:16:46;12.50;;;4.65;;
23394;SDS011;11870;53.084;18.206;2023-07-20T05:19:12;9.20;;;5.65;;
23394;SDS011;11870;53.084;18.206;2023-07-20T05:21:38;16.58;;;5.65;;
23394;SDS011;11870;53.084;18.206;2023-07-20T05:26:49;12.15;;;6.00;;
23394;SDS011;11870;53.084;18.206;2023-07-20T05:29:21;9.70;;;6.50;;
23394;SDS011;11870;53.084;18.206;2023-07-20T05:31:47;8.20;;;6.18;;
23394;SDS011;11870;53.084;18.206;2023-07-20T05:34:14;15.52;;;6.72;;
23394;SDS011;11870;53.084;18.206;2023-07-20T05:36:40;15.05;;;6.88;;
23394;SDS011;11870;53.084;18.206;2023-07-20T05:39:06;17.65;;;6.28;;
23394;SDS011;11870;53.084;18.206;2023-07-20T05:41:41;12.85;;;6.63;;
23394;SDS011;11870;53.084;18.206;2023-07-20T05:47:48;10.27;;;6.40;;
23394;SDS011;11870;53.084;18.206;2023-07-20T05:54:00;11.20;;;6.45;;
23394;SDS011;11870;53.084;18.206;2023-07-20T05:56:26;8.20;;;6.30;;
23394;SDS011;11870;53.084;18.206;2023-07-20T05:58:52;10.02;;;6.18;;
23394;SDS011;11870;53.084;18.206;2023-07-20T06:01:19;10.82;;;6.65;;
23394;SDS011;11870;53.084;18.206;2023-07-20T06:03:45;9.55;;;6.95;;
23394;SDS011;11870;53.084;18.206;2023-07-20T06:06:11;9.40;;;7.07;;
23394;SDS011;11870;53.084;18.206;2023-07-20T06:08:38;9.98;;;6.15;;
23394;SDS011;11870;53.084;18.206;2023-07-20T06:11:04;10.60;;;5.93;;
23394;SDS011;11870;53.084;18.206;2023-07-20T06:13:32;17.55;;;6.32;;
23394;SDS011;11870;53.084;18.206;2023-07-20T06:15:58;11.10;;;5.72;;
23394;SDS011;11870;53.084;18.206;2023-07-20T06:18:24;7.75;;;6.55;;
23394;SDS011;11870;53.084;18.206;2023-07-20T06:20:50;9.18;;;6.65;;
23394;SDS011;11870;53.084;18.206;2023-07-20T06:23:20;10.77;;;5.88;;
23394;SDS011;11870;53.084;18.206;2023-07-20T06:25:46;7.78;;;6.28;;
23394;SDS011;11870;53.084;18.206;2023-07-20T06:28:13;10.98;;;6.43;;
23394;SDS011;11870;53.084;18.206;2023-07-20T06:30:39;7.15;;;5.40;;
23394;SDS011;11870;53.084;18.206;2023-07-20T06:33:06;8.32;;;6.18;;
23394;SDS011;11870;53.084;18.206;2023-07-20T06:35:33;9.40;;;6.68;;
23394;SDS011;11870;53.084;18.206;2023-07-20T06:38:00;8.38;;;5.32;;
23394;SDS011;11870;53.084;18.206;2023-07-20T06:40:26;7.28;;;5.47;;
23394;SDS011;11870;53.084;18.206;2023-07-20T06:42:53;6.35;;;5.05;;
23394;SDS011;11870;53.084;18.206;2023-07-20T06:45:20;11.55;;;5.57;;
23394;SDS011;11870;53.084;18.206;2023-07-20T06:47:46;7.78;;;5.00;;
23394;SDS011;11870;53.084;18.206;2023-07-20T06:50:12;10.80;;;5.53;;
23394;SDS011;11870;53.084;18.206;2023-07-20T06:52:38;14.10;;;6.03;;
23394;SDS011;11870;53.084;18.206;2023-07-20T06:55:05;9.50;;;5.45;;
23394;SDS011;11870;53.084;18.206;2023-07-20T06:57:32;10.68;;;5.80;;
23394;SDS011;11870;53.084;18.206;2023-07-20T06:59:58;10.73;;;5.40;;
23394;SDS011;11870;53.084;18.206;2023-07-20T07:02:24;11.60;;;5.10;;
23394;SDS011;11870;53.084;18.206;2023-07-20T07:04:51;8.82;;;4.95;;
23394;SDS011;11870;53.084;18.206;2023-07-20T07:07:18;6.95;;;4.85;;
23394;SDS011;11870;53.084;18.206;2023-07-20T07:09:44;7.63;;;4.65;;
23394;SDS011;11870;53.084;18.206;2023-07-20T07:12:10;4.63;;;2.80;;
23394;SDS011;11870;53.084;18.206;2023-07-20T07:14:36;5.40;;;1.63;;
23394;SDS011;11870;53.084;18.206;2023-07-20T07:17:03;4.05;;;1.95;;
23394;SDS011;11870;53.084;18.206;2023-07-20T07:19:29;3.50;;;2.35;;
23394;SDS011;11870;53.084;18.206;2023-07-20T07:21:55;5.50;;;2.80;;
23394;SDS011;11870;53.084;18.206;2023-07-20T07:24:22;4.57;;;2.78;;
23394;SDS011;11870;53.084;18.206;2023-07-20T07:26:48;4.65;;;2.72;;
23394;SDS011;11870;53.084;18.206;2023-07-20T07:29:14;5.68;;;2.60;;
23394;SDS011;11870;53.084;18.206;2023-07-20T07:31:40;4.22;;;2.38;;
23394;SDS011;11870;53.084;18.206;2023-07-20T07:34:07;3.35;;;2.00;;
23394;SDS011;11870;53.084;18.206;2023-07-20T07:36:33;3.28;;;2.65;;
23394;SDS011;11870;53.084;18.206;2023-07-20T07:39:00;2.60;;;2.10;;
23394;SDS011;11870;53.084;18.206;2023-07-20T07:41:26;3.30;;;2.03;;
23394;SDS011;11870;53.084;18.206;2023-07-20T07:43:52;4.45;;;2.28;;
23394;SDS011;11870;53.084;18.206;2023-07-20T07:46:19;3.72;;;1.90;;
23394;SDS011;11870;53.084;18.206;2023-07-20T07:48:45;3.55;;;2.00;;
23394;SDS011;11870;53.084;18.206;2023-07-20T07:51:12;5.18;;;1.90;;
23394;SDS011;11870;53.084;18.206;2023-07-20T07:53:39;2.13;;;1.92;;
23394;SDS011;11870;53.084;18.206;2023-07-20T07:56:09;4.47;;;2.80;;
23394;SDS011;11870;53.084;18.206;2023-07-20T07:58:35;5.53;;;1.90;;
23394;SDS011;11870;53.084;18.206;2023-07-20T08:01:01;2.80;;;2.15;;
23394;SDS011;11870;53.084;18.206;2023-07-20T08:03:28;7.53;;;2.40;;
23394;SDS011;11870;53.084;18.206;2023-07-20T08:05:54;4.35;;;2.53;;
23394;SDS011;11870;53.084;18.206;2023-07-20T08:08:21;4.70;;;2.53;;
23394;SDS011;11870;53.084;18.206;2023-07-20T08:10:48;2.58;;;2.00;;
23394;SDS011;11870;53.084;18.206;2023-07-20T08:13:14;3.47;;;2.20;;
23394;SDS011;11870;53.084;18.206;2023-07-20T08:15:45;2.08;;;1.70;;
23394;SDS011;11870;53.084;18.206;2023-07-20T08:18:14;3.50;;;2.05;;
23394;SDS011;11870;53.084;18.206;2023-07-20T08:20:43;3.13;;;2.20;;
23394;SDS011;11870;53.084;18.206;2023-07-20T08:23:09;4.78;;;2.10;;
23394;SDS011;11870;53.084;18.206;2023-07-20T08:25:36;3.40;;;2.00;;
23394;SDS011;11870;53.084;18.206;2023-07-20T08:28:05;4.95;;;2.50;;
23394;SDS011;11870;53.084;18.206;2023-07-20T08:30:44;4.78;;;2.40;;
23394;SDS011;11870;53.084;18.206;2023-07-20T08:33:14;4.00;;;2.03;;
23394;SDS011;11870;53.084;18.206;2023-07-20T08:35:41;3.80;;;1.75;;
23394;SDS011;11870;53.084;18.206;2023-07-20T08:38:08;2.35;;;1.67;;
23394;SDS011;11870;53.084;18.206;2023-07-20T08:40:44;2.88;;;1.90;;
23394;SDS011;11870;53.084;18.206;2023-07-20T08:43:11;4.20;;;1.73;;
23394;SDS011;11870;53.084;18.206;2023-07-20T08:45:40;1.77;;;1.40;;
23394;SDS011;11870;53.084;18.206;2023-07-20T08:48:07;2.80;;;1.30;;
23394;SDS011;11870;53.084;18.206;2023-07-20T08:50:33;4.13;;;1.42;;
23394;SDS011;11870;53.084;18.206;2023-07-20T08:53:01;5.28;;;1.50;;
23394;SDS011;11870;53.084;18.206;2023-07-20T08:55:28;1.88;;;1.33;;
23394;SDS011;11870;53.084;18.206;2023-07-20T08:57:55;2.55;;;1.92;;
23394;SDS011;11870;53.084;18.206;2023-07-20T09:00:23;3.55;;;1.80;;
23394;SDS011;11870;53.084;18.206;2023-07-20T09:02:50;2.45;;;1.48;;
23394;SDS011;11870;53.084;18.206;2023-07-20T09:05:18;5.22;;;1.73;;
23394;SDS011;11870;53.084;18.206;2023-07-20T09:07:45;1.98;;;1.25;;
23394;SDS011;11870;53.084;18.206;2023-07-20T09:10:11;2.10;;;1.80;;
23394;SDS011;11870;53.084;18.206;2023-07-20T09:12:38;3.08;;;1.75;;
23394;SDS011;11870;53.084;18.206;2023-07-20T09:15:06;2.30;;;1.63;;
23394;SDS011;11870;53.084;18.206;2023-07-20T09:17:32;4.90;;;1.58;;
23394;SDS011;11870;53.084;18.206;2023-07-20T09:19:59;2.08;;;1.40;;
23394;SDS011;11870;53.084;18.206;2023-07-20T09:22:34;4.88;;;1.80;;
23394;SDS011;11870;53.084;18.206;2023-07-20T09:25:00;1.85;;;1.48;;
23394;SDS011;11870;53.084;18.206;2023-07-20T09:27:40;1.67;;;1.00;;
23394;SDS011;11870;53.084;18.206;2023-07-20T09:30:08;2.60;;;1.60;;
23394;SDS011;11870;53.084;18.206;2023-07-20T09:32:39;2.30;;;1.40;;
23394;SDS011;11870;53.084;18.206;2023-07-20T09:35:12;4.47;;;1.23;;
23394;SDS011;11870;53.084;18.206;2023-07-20T09:37:50;1.30;;;1.20;;
23394;SDS011;11870;53.084;18.206;2023-07-20T09:40:19;1.25;;;1.10;;
23394;SDS011;11870;53.084;18.206;2023-07-20T09:42:46;2.15;;;0.90;;
23394;SDS011;11870;53.084;18.206;2023-07-20T09:45:13;0.88;;;0.88;;
23394;SDS011;11870;53.084;18.206;2023-07-20T09:47:40;1.33;;;1.00;;
23394;SDS011;11870;53.084;18.206;2023-07-20T09:50:07;3.92;;;1.10;;
23394;SDS011;11870;53.084;18.206;2023-07-20T09:52:37;2.25;;;1.08;;
23394;SDS011;11870;53.084;18.206;2023-07-20T09:55:08;0.82;;;0.77;;
23394;SDS011;11870;53.084;18.206;2023-07-20T09:57:35;1.00;;;0.95;;
23394;SDS011;11870;53.084;18.206;2023-07-20T10:00:05;1.00;;;0.80;;
23394;SDS011;11870;53.084;18.206;2023-07-20T10:02:43;2.03;;;0.90;;
23394;SDS011;11870;53.084;18.206;2023-07-20T10:05:11;2.00;;;0.90;;
23394;SDS011;11870;53.084;18.206;2023-07-20T10:07:41;1.77;;;0.95;;
23394;SDS011;11870;53.084;18.206;2023-07-20T10:10:10;0.77;;;0.77;;
23394;SDS011;11870;53.084;18.206;2023-07-20T10:12:37;1.10;;;0.80;;
23394;SDS011;11870;53.084;18.206;2023-07-20T10:15:26;0.80;;;0.80;;
23394;SDS011;11870;53.084;18.206;2023-07-20T10:20:21;3.90;;;1.42;;
23394;SDS011;11870;53.084;18.206;2023-07-20T10:22:49;2.85;;;0.73;;
23394;SDS011;11870;53.084;18.206;2023-07-20T10:25:19;8.30;;;0.90;;
23394;SDS011;11870;53.084;18.206;2023-07-20T10:27:47;1.38;;;0.88;;
23394;SDS011;11870;53.084;18.206;2023-07-20T10:30:15;16.63;;;1.27;;
23394;SDS011;11870;53.084;18.206;2023-07-20T10:32:43;1.20;;;0.77;;
23394;SDS011;11870;53.084;18.206;2023-07-20T10:35:17;1.88;;;0.73;;
23394;SDS011;11870;53.084;18.206;2023-07-20T10:37:47;1.90;;;0.80;;
23394;SDS011;11870;53.084;18.206;2023-07-20T10:40:34;1.92;;;0.70;;
23394;SDS011;11870;53.084;18.206;2023-07-20T10:43:05;2.45;;;1.00;;
23394;SDS011;11870;53.084;18.206;2023-07-20T10:45:35;1.23;;;0.70;;
23394;SDS011;11870;53.084;18.206;2023-07-20T10:48:04;2.47;;;0.70;;
23394;SDS011;11870;53.084;18.206;2023-07-20T10:50:32;0.85;;;0.70;;
23394;SDS011;11870;53.084;18.206;2023-07-20T10:53:03;1.60;;;0.80;;
23394;SDS011;11870;53.084;18.206;2023-07-20T10:55:31;3.15;;;0.77;;
23394;SDS011;11870;53.084;18.206;2023-07-20T10:58:07;1.27;;;0.80;;
23394;SDS011;11870;53.084;18.206;2023-07-20T11:00:35;1.08;;;0.75;;
23394;SDS011;11870;53.084;18.206;2023-07-20T11:03:05;0.90;;;0.88;;
23394;SDS011;11870;53.084;18.206;2023-07-20T11:07:59;2.75;;;0.80;;
23394;SDS011;11870;53.084;18.206;2023-07-20T11:10:26;3.60;;;0.88;;
23394;SDS011;11870;53.084;18.206;2023-07-20T11:18:21;1.60;;;0.75;;
23394;SDS011;11870;53.084;18.206;2023-07-20T11:20:52;2.63;;;0.70;;
23394;SDS011;11870;53.084;18.206;2023-07-20T11:23:19;1.23;;;0.90;;
23394;SDS011;11870;53.084;18.206;2023-07-20T11:25:46;5.22;;;0.80;;
23394;SDS011;11870;53.084;18.206;2023-07-20T11:28:13;1.85;;;0.80;;
23394;SDS011;11870;53.084;18.206;2023-07-20T11:30:42;0.93;;;0.70;;
23394;SDS011;11870;53.084;18.206;2023-07-20T11:33:08;1.42;;;0.93;;
23394;SDS011;11870;53.084;18.206;2023-07-20T11:35:35;1.35;;;0.90;;
23394;SDS011;11870;53.084;18.206;2023-07-20T11:38:13;3.25;;;0.90;;
23394;SDS011;11870;53.084;18.206;2023-07-20T11:40:44;4.97;;;0.93;;
23394;SDS011;11870;53.084;18.206;2023-07-20T11:43:14;1.15;;;0.80;;
23394;SDS011;11870;53.084;18.206;2023-07-20T11:45:40;0.93;;;0.80;;
23394;SDS011;11870;53.084;18.206;2023-07-20T11:48:06;1.77;;;0.88;;
23394;SDS011;11870;53.084;18.206;2023-07-20T11:50:38;1.23;;;0.70;;
23394;SDS011;11870;53.084;18.206;2023-07-20T11:53:05;1.50;;;0.90;;
23394;SDS011;11870;53.084;18.206;2023-07-20T11:55:32;1.05;;;0.70;;
23394;SDS011;11870;53.084;18.206;2023-07-20T11:58:06;1.70;;;1.00;;
23394;SDS011;11870;53.084;18.206;2023-07-20T12:00:33;0.98;;;0.77;;
23394;SDS011;11870;53.084;18.206;2023-07-20T12:03:00;5.30;;;0.93;;
23394;SDS011;11870;53.084;18.206;2023-07-20T12:05:27;2.67;;;0.80;;
23394;SDS011;11870;53.084;18.206;2023-07-20T12:07:54;3.63;;;0.82;;
23394;SDS011;11870;53.084;18.206;2023-07-20T12:10:26;1.45;;;0.90;;
23394;SDS011;11870;53.084;18.206;2023-07-20T12:12:54;2.00;;;0.70;;
23394;SDS011;11870;53.084;18.206;2023-07-20T12:15:21;6.63;;;1.02;;
23394;SDS011;11870;53.084;18.206;2023-07-20T12:17:54;2.67;;;0.88;;
23394;SDS011;11870;53.084;18.206;2023-07-20T12:20:31;0.80;;;0.70;;
23394;SDS011;11870;53.084;18.206;2023-07-20T12:23:01;1.73;;;0.88;;
23394;SDS011;11870;53.084;18.206;2023-07-20T12:25:34;1.02;;;0.75;;
23394;SDS011;11870;53.084;18.206;2023-07-20T12:28:07;2.17;;;0.90;;
23394;SDS011;11870;53.084;18.206;2023-07-20T12:30:43;1.38;;;0.70;;
23394;SDS011;11870;53.084;18.206;2023-07-20T12:33:10;2.60;;;0.60;;
23394;SDS011;11870;53.084;18.206;2023-07-20T12:35:41;1.50;;;0.60;;
23394;SDS011;11870;53.084;18.206;2023-07-20T12:38:08;1.60;;;0.60;;
23394;SDS011;11870;53.084;18.206;2023-07-20T12:40:35;0.50;;;0.50;;
23394;SDS011;11870;53.084;18.206;2023-07-20T12:43:02;1.45;;;0.65;;
23394;SDS011;11870;53.084;18.206;2023-07-20T12:45:29;2.25;;;0.70;;
23394;SDS011;11870;53.084;18.206;2023-07-20T12:47:56;1.60;;;0.90;;
23394;SDS011;11870;53.084;18.206;2023-07-20T12:50:22;0.80;;;0.70;;
23394;SDS011;11870;53.084;18.206;2023-07-20T12:52:49;1.50;;;0.60;;
23394;SDS011;11870;53.084;18.206;2023-07-20T12:55:15;1.45;;;0.80;;
23394;SDS011;11870;53.084;18.206;2023-07-20T12:57:42;0.95;;;0.70;;
23394;SDS011;11870;53.084;18.206;2023-07-20T13:00:09;1.60;;;0.60;;
23394;SDS011;11870;53.084;18.206;2023-07-20T13:02:37;2.85;;;0.70;;
23394;SDS011;11870;53.084;18.206;2023-07-20T13:05:04;1.33;;;0.60;;
23394;SDS011;11870;53.084;18.206;2023-07-20T13:07:31;1.05;;;0.60;;
23394;SDS011;11870;53.084;18.206;2023-07-20T13:10:02;0.70;;;0.55;;
23394;SDS011;11870;53.084;18.206;2023-07-20T13:12:30;1.88;;;1.00;;
23394;SDS011;11870;53.084;18.206;2023-07-20T13:14:57;1.10;;;0.80;;
23394;SDS011;11870;53.084;18.206;2023-07-20T13:17:28;1.13;;;0.70;;
23394;SDS011;11870;53.084;18.206;2023-07-20T13:19:54;0.82;;;0.77;;
23394;SDS011;11870;53.084;18.206;2023-07-20T13:22:21;1.55;;;0.70;;
23394;SDS011;11870;53.084;18.206;2023-07-20T13:24:48;0.55;;;0.50;;
23394;SDS011;11870;53.084;18.206;2023-07-20T13:27:16;6.05;;;0.90;;
23394;SDS011;11870;53.084;18.206;2023-07-20T13:29:43;1.88;;;0.93;;
23394;SDS011;11870;53.084;18.206;2023-07-20T13:32:10;2.83;;;0.93;;
23394;SDS011;11870;53.084;18.206;2023-07-20T13:34:36;1.48;;;0.70;;
23394;SDS011;11870;53.084;18.206;2023-07-20T13:37:03;0.60;;;0.60;;
23394;SDS011;11870;53.084;18.206;2023-07-20T13:39:29;1.20;;;0.80;;
23394;SDS011;11870;53.084;18.206;2023-07-20T13:41:56;1.00;;;0.80;;
23394;SDS011;11870;53.084;18.206;2023-07-20T13:44:22;1.83;;;0.73;;
23394;SDS011;11870;53.084;18.206;2023-07-20T13:46:49;1.30;;;0.88;;
23394;SDS011;11870;53.084;18.206;2023-07-20T13:49:15;0.95;;;0.60;;
23394;SDS011;11870;53.084;18.206;2023-07-20T13:51:42;2.78;;;0.70;;
23394;SDS011;11870;53.084;18.206;2023-07-20T13:54:08;0.60;;;0.60;;
23394;SDS011;11870;53.084;18.206;2023-07-20T13:56:35;1.48;;;0.70;;
23394;SDS011;11870;53.084;18.206;2023-07-20T13:59:01;1.08;;;0.73;;
23394;SDS011;11870;53.084;18.206;2023-07-20T14:01:28;0.95;;;0.80;;
23394;SDS011;11870;53.084;18.206;2023-07-20T14:03:55;0.80;;;0.80;;
23394;SDS011;11870;53.084;18.206;2023-07-20T14:06:22;0.70;;;0.70;;
23394;SDS011;11870;53.084;18.206;2023-07-20T14:08:48;0.68;;;0.68;;
23394;SDS011;11870;53.084;18.206;2023-07-20T14:11:15;3.50;;;0.70;;
23394;SDS011;11870;53.084;18.206;2023-07-20T14:13:42;1.35;;;0.60;;
23394;SDS011;11870;53.084;18.206;2023-07-20T14:16:08;0.75;;;0.70;;
23394;SDS011;11870;53.084;18.206;2023-07-20T14:18:34;0.60;;;0.60;;
23394;SDS011;11870;53.084;18.206;2023-07-20T14:21:01;0.50;;;0.50;;
23394;SDS011;11870;53.084;18.206;2023-07-20T14:23:28;0.60;;;0.60;;
23394;SDS011;11870;53.084;18.206;2023-07-20T14:25:55;0.65;;;0.65;;
23394;SDS011;11870;53.084;18.206;2023-07-20T14:28:21;4.00;;;0.70;;
23394;SDS011;11870;53.084;18.206;2023-07-20T14:30:47;2.47;;;0.60;;
23394;SDS011;11870;53.084;18.206;2023-07-20T14:33:14;1.48;;;0.60;;
23394;SDS011;11870;53.084;18.206;2023-07-20T14:35:40;0.50;;;0.50;;
23394;SDS011;11870;53.084;18.206;2023-07-20T14:38:07;0.55;;;0.55;;
23394;SDS011;11870;53.084;18.206;2023-07-20T14:40:33;1.13;;;0.60;;
23394;SDS011;11870;53.084;18.206;2023-07-20T14:42:59;0.82;;;0.70;;
23394;SDS011;11870;53.084;18.206;2023-07-20T14:45:29;0.57;;;0.55;;
23394;SDS011;11870;53.084;18.206;2023-07-20T14:47:55;0.52;;;0.52;;
23394;SDS011;11870;53.084;18.206;2023-07-20T14:50:22;1.25;;;0.65;;
23394;SDS011;11870;53.084;18.206;2023-07-20T14:52:49;0.60;;;0.60;;
23394;SDS011;11870;53.084;18.206;2023-07-20T14:55:16;3.00;;;0.80;;
23394;SDS011;11870;53.084;18.206;2023-07-20T14:57:42;1.80;;;0.73;;
23394;SDS011;11870;53.084;18.206;2023-07-20T15:00:09;3.60;;;1.83;;
23394;SDS011;11870;53.084;18.206;2023-07-20T15:02:36;9.93;;;1.15;;
23394;SDS011;11870;53.084;18.206;2023-07-20T15:05:05;0.80;;;0.50;;
23394;SDS011;11870;53.084;18.206;2023-07-20T15:07:32;1.67;;;0.50;;
23394;SDS011;11870;53.084;18.206;2023-07-20T15:10:00;1.92;;;0.65;;
23394;SDS011;11870;53.084;18.206;2023-07-20T15:12:26;2.90;;;0.47;;
23394;SDS011;11870;53.084;18.206;2023-07-20T15:15:09;0.50;;;0.50;;
23394;SDS011;11870;53.084;18.206;2023-07-20T15:17:36;0.60;;;0.50;;
23394;SDS011;11870;53.084;18.206;2023-07-20T15:20:03;1.55;;;0.70;;
23394;SDS011;11870;53.084;18.206;2023-07-20T15:22:32;1.00;;;0.40;;
23394;SDS011;11870;53.084;18.206;2023-07-20T15:24:59;0.77;;;0.50;;
23394;SDS011;11870;53.084;18.206;2023-07-20T15:27:26;0.73;;;0.60;;
23394;SDS011;11870;53.084;18.206;2023-07-20T15:29:53;0.80;;;0.50;;
23394;SDS011;11870;53.084;18.206;2023-07-20T15:32:19;0.82;;;0.52;;
23394;SDS011;11870;53.084;18.206;2023-07-20T15:34:45;0.70;;;0.70;;
23394;SDS011;11870;53.084;18.206;2023-07-20T15:37:12;0.70;;;0.68;;
23394;SDS011;11870;53.084;18.206;2023-07-20T15:39:39;1.50;;;0.75;;
23394;SDS011;11870;53.084;18.206;2023-07-20T15:42:06;1.05;;;0.85;;
23394;SDS011;11870;53.084;18.206;2023-07-20T15:44:32;1.25;;;1.05;;
23394;SDS011;11870;53.084;18.206;2023-07-20T15:46:58;0.93;;;0.70;;
23394;SDS011;11870;53.084;18.206;2023-07-20T15:49:25;1.30;;;0.85;;
23394;SDS011;11870;53.084;18.206;2023-07-20T15:51:52;1.75;;;0.60;;
23394;SDS011;11870;53.084;18.206;2023-07-20T15:54:20;0.50;;;0.50;;
23394;SDS011;11870;53.084;18.206;2023-07-20T15:56:47;0.75;;;0.60;;
23394;SDS011;11870;53.084;18.206;2023-07-20T15:59:14;0.60;;;0.60;;
23394;SDS011;11870;53.084;18.206;2023-07-20T16:01:42;0.50;;;0.50;;
23394;SDS011;11870;53.084;18.206;2023-07-20T16:04:09;0.47;;;0.43;;
23394;SDS011;11870;53.084;18.206;2023-07-20T16:06:38;1.08;;;0.60;;
23394;SDS011;11870;53.084;18.206;2023-07-20T16:09:08;1.13;;;0.60;;
23394;SDS011;11870;53.084;18.206;2023-07-20T16:11:34;1.15;;;0.68;;
23394;SDS011;11870;53.084;18.206;2023-07-20T16:14:05;1.23;;;0.57;;
23394;SDS011;11870;53.084;18.206;2023-07-20T16:16:33;2.40;;;0.70;;
23394;SDS011;11870;53.084;18.206;2023-07-20T16:19:02;1.20;;;0.60;;
23394;SDS011;11870;53.084;18.206;2023-07-20T16:21:28;0.82;;;0.60;;
23394;SDS011;11870;53.084;18.206;2023-07-20T16:23:56;0.88;;;0.63;;
23394;SDS011;11870;53.084;18.206;2023-07-20T16:26:22;0.70;;;0.63;;
23394;SDS011;11870;53.084;18.206;2023-07-20T16:28:49;0.68;;;0.68;;
23394;SDS011;11870;53.084;18.206;2023-07-20T16:31:15;0.77;;;0.68;;
23394;SDS011;11870;53.084;18.206;2023-07-20T16:33:42;1.13;;;0.63;;
23394;SDS011;11870;53.084;18.206;2023-07-20T16:36:11;0.63;;;0.60;;
23394;SDS011;11870;53.084;18.206;2023-07-20T16:38:42;1.50;;;0.70;;
23394;SDS011;11870;53.084;18.206;2023-07-20T16:41:30;0.77;;;0.52;;
23394;SDS011;11870;53.084;18.206;2023-07-20T16:43:58;1.33;;;0.70;;
23394;SDS011;11870;53.084;18.206;2023-07-20T16:46:24;3.20;;;0.65;;
23394;SDS011;11870;53.084;18.206;2023-07-20T16:48:51;0.60;;;0.60;;
23394;SDS011;11870;53.084;18.206;2023-07-20T16:51:17;1.10;;;0.50;;
23394;SDS011;11870;53.084;18.206;2023-07-20T16:53:48;3.55;;;0.70;;
23394;SDS011;11870;53.084;18.206;2023-07-20T16:56:14;0.93;;;0.68;;
23394;SDS011;11870;53.084;18.206;2023-07-20T16:58:49;1.45;;;0.70;;
23394;SDS011;11870;53.084;18.206;2023-07-20T17:01:16;0.50;;;0.50;;
23394;SDS011;11870;53.084;18.206;2023-07-20T17:03:42;2.92;;;0.60;;
23394;SDS011;11870;53.084;18.206;2023-07-20T17:06:09;0.88;;;0.63;;
23394;SDS011;11870;53.084;18.206;2023-07-20T17:08:35;2.03;;;0.60;;
23394;SDS011;11870;53.084;18.206;2023-07-20T17:11:02;1.85;;;0.70;;
23394;SDS011;11870;53.084;18.206;2023-07-20T17:13:29;0.52;;;0.52;;
23394;SDS011;11870;53.084;18.206;2023-07-20T17:15:58;1.08;;;0.60;;
23394;SDS011;11870;53.084;18.206;2023-07-20T17:18:25;1.13;;;0.70;;
23394;SDS011;11870;53.084;18.206;2023-07-20T17:20:51;1.85;;;0.60;;
23394;SDS011;11870;53.084;18.206;2023-07-20T17:23:17;1.88;;;0.60;;
23394;SDS011;11870;53.084;18.206;2023-07-20T17:25:44;0.50;;;0.50;;
23394;SDS011;11870;53.084;18.206;2023-07-20T17:28:12;0.55;;;0.52;;
23394;SDS011;11870;53.084;18.206;2023-07-20T17:30:39;0.77;;;0.70;;
23394;SDS011;11870;53.084;18.206;2023-07-20T17:33:06;1.23;;;0.73;;
23394;SDS011;11870;53.084;18.206;2023-07-20T17:35:34;0.50;;;0.50;;
23394;SDS011;11870;53.084;18.206;2023-07-20T17:38:00;1.55;;;0.70;;
23394;SDS011;11870;53.084;18.206;2023-07-20T17:40:27;0.82;;;0.63;;
23394;SDS011;11870;53.084;18.206;2023-07-20T17:42:54;1.27;;;0.60;;
23394;SDS011;11870;53.084;18.206;2023-07-20T17:45:20;0.70;;;0.60;;
23394;SDS011;11870;53.084;18.206;2023-07-20T17:47:48;3.20;;;0.95;;
23394;SDS011;11870;53.084;18.206;2023-07-20T17:50:14;0.57;;;0.57;;
23394;SDS011;11870;53.084;18.206;2023-07-20T17:52:41;1.60;;;0.70;;
23394;SDS011;11870;53.084;18.206;2023-07-20T17:55:07;1.35;;;0.70;;
23394;SDS011;11870;53.084;18.206;2023-07-20T17:57:34;0.73;;;0.70;;
23394;SDS011;11870;53.084;18.206;2023-07-20T18:00:00;0.82;;;0.60;;
23394;SDS011;11870;53.084;18.206;2023-07-20T18:02:27;3.90;;;0.50;;
23394;SDS011;11870;53.084;18.206;2023-07-20T18:04:53;1.00;;;0.68;;
23394;SDS011;11870;53.084;18.206;2023-07-20T18:07:19;4.03;;;0.75;;
23394;SDS011;11870;53.084;18.206;2023-07-20T18:09:46;2.05;;;0.70;;
23394;SDS011;11870;53.084;18.206;2023-07-20T18:12:13;1.38;;;0.63;;
23394;SDS011;11870;53.084;18.206;2023-07-20T18:14:39;1.45;;;0.85;;
23394;SDS011;11870;53.084;18.206;2023-07-20T18:17:06;0.80;;;0.80;;
23394;SDS011;11870;53.084;18.206;2023-07-20T18:19:32;1.10;;;0.90;;
23394;SDS011;11870;53.084;18.206;2023-07-20T18:21:59;2.47;;;0.93;;
23394;SDS011;11870;53.084;18.206;2023-07-20T18:24:25;3.22;;;0.90;;
23394;SDS011;11870;53.084;18.206;2023-07-20T18:26:52;9.20;;;1.50;;
23394;SDS011;11870;53.084;18.206;2023-07-20T18:29:19;9.02;;;1.45;;
23394;SDS011;11870;53.084;18.206;2023-07-20T18:31:44;5.50;;;1.10;;
23394;SDS011;11870;53.084;18.206;2023-07-20T18:34:11;3.20;;;1.27;;
23394;SDS011;11870;53.084;18.206;2023-07-20T18:36:36;7.50;;;1.50;;
23394;SDS011;11870;53.084;18.206;2023-07-20T18:39:03;2.60;;;1.20;;
23394;SDS011;11870;53.084;18.206;2023-07-20T18:41:29;4.55;;;1.13;;
23394;SDS011;11870;53.084;18.206;2023-07-20T18:43:55;3.67;;;1.02;;
23394;SDS011;11870;53.084;18.206;2023-07-20T18:46:22;7.88;;;1.15;;